Time;durP1;ratioP1;P1;durP2;ratioP2;P2;SDS_P1;SDS_P2;PMS_P1;PMS_P2;Temp;Humidity;BMP_temperature;BMP_pressure;BME280_temperature;BME280_humidity;BME280_pressure;Samples;Min_cycle;Max_cycle;Signal;HPM_P1;HPM_P2
2021/01/11 00:01:00;;;;;;;;;;;;;;;-0.55;100.00;101255.86;1902462;75;20413;-41
2021/01/11 00:03:28;;;;;;;;;;;;;;;-0.55;100.00;101267.05;1902413;75;20465;-41
2021/01/11 00:05:56;;;;;;;;;;;;;;;-0.57;100.00;101276.80;1902247;75;20282;-41
2021/01/11 00:08:24;;;;;;;;;;;;;;;-0.59;100.00;101293.48;1902264;75;20164;-41
2021/01/11 00:10:52;;;;;;;;;;;;;;;-0.61;100.00;101305.84;1898234;75;20121;-41
2021/01/11 00:13:19;;;;;;;;;;;;;;;-0.62;100.00;101311.41;1867199;76;20184;-41
2021/01/11 00:15:47;;;;;;;;;;;;;;;-0.63;100.00;101310.94;1867431;76;20138;-41
2021/01/11 00:18:15;;;;;;;;;;;;;;;-0.64;100.00;101315.61;1867417;76;20426;-40
2021/01/11 00:20:43;;;;;;;;;;;;;;;-0.67;100.00;101310.36;1867277;76;20220;-41
2021/01/11 00:23:11;;;;;;;;;;;;;;;-0.68;100.00;101298.70;1867146;77;20133;-41
2021/01/11 00:25:40;;;;;;;;;;;;;;;-0.72;100.00;101284.83;1867493;76;20144;-41
2021/01/11 00:28:08;;;;;;;;;;;;;;;-0.74;100.00;101274.02;1867595;77;20272;-42
2021/01/11 00:30:38;;;;;;;;;;;;;;;-0.75;100.00;101263.25;1867327;77;20168;-41
2021/01/11 00:33:05;;;;;;;;;;;;;;;-0.76;100.00;101261.08;1867242;76;20223;-42
2021/01/11 00:35:34;;;;;;;;;;;;;;;-0.73;100.00;101252.61;1867243;76;20588;-40
2021/01/11 00:38:04;;;;;;;;;;;;;;;-0.71;100.00;101254.41;1867493;77;20251;-41
2021/01/11 00:40:37;;;;;;;;;;;;;;;-0.67;100.00;101247.69;1867527;76;20132;-42
2021/01/11 00:43:04;;;;;;;;;;;;;;;-0.63;100.00;101254.69;1867485;77;20175;-42
2021/01/11 00:45:32;;;;;;;;;;;;;;;-0.63;100.00;101251.71;1867299;77;20228;-42
2021/01/11 00:48:01;;;;;;;;;;;;;;;-0.61;100.00;101258.21;1867441;76;20148;-41
2021/01/11 00:50:29;;;;;;;;;;;;;;;-0.60;100.00;101249.27;1867354;77;20180;-41
2021/01/11 00:52:56;;;;;;;;;;;;;;;-0.59;100.00;101249.70;1867424;76;20204;-42
2021/01/11 00:55:25;;;;;;;;;;;;;;;-0.59;100.00;101236.83;1867124;77;20168;-41
2021/01/11 00:57:58;;;;;;;;;;;;;;;-0.59;100.00;101230.39;1867600;76;20164;-41
2021/01/11 01:00:27;;;;;;;;;;;;;;;-0.60;100.00;101226.09;1867195;77;20140;-42
2021/01/11 01:03:12;;;;;;;;;;;;;;;-0.61;100.00;101226.91;1867250;76;20294;-42
2021/01/11 01:05:40;;;;;;;;;;;;;;;-0.62;100.00;101235.86;1867279;76;20438;-41
2021/01/11 01:08:07;;;;;;;;;;;;;;;-0.62;100.00;101252.59;1867213;77;20215;-41
2021/01/11 01:10:35;;;;;;;;;;;;;;;-0.63;100.00;101262.02;1867500;76;20223;-41
2021/01/11 01:13:04;;;;;;;;;;;;;;;-0.62;100.00;101275.77;1867453;77;20553;-42
2021/01/11 01:15:32;;;;;;;;;;;;;;;-0.64;100.00;101276.98;1867059;77;20281;-41
2021/01/11 01:18:00;;;;;;;;;;;;;;;-0.64;100.00;101282.14;1867292;76;20156;-40
2021/01/11 01:20:28;;;;;;;;;;;;;;;-0.64;100.00;101272.25;1867534;77;20267;-41
2021/01/11 01:22:55;;;;;;;;;;;;;;;-0.64;100.00;101277.39;1867431;77;20153;-42
2021/01/11 01:25:23;;;;;;;;;;;;;;;-0.68;100.00;101278.99;1867448;77;20263;-41
2021/01/11 01:27:51;;;;;;;;;;;;;;;-0.68;100.00;101278.99;1867223;76;20120;-41
2021/01/11 01:30:20;;;;;;;;;;;;;;;-0.69;100.00;101275.94;1867153;77;20215;-41
2021/01/11 01:32:48;;;;;;;;;;;;;;;-0.70;100.00;101267.75;1867225;76;20402;-41
2021/01/11 01:35:16;;;;;;;;;;;;;;;-0.71;100.00;101267.27;1867243;77;20426;-42
2021/01/11 01:37:44;;;;;;;;;;;;;;;-0.72;100.00;101260.36;1867467;76;20322;-40
2021/01/11 01:40:13;;;;;;;;;;;;;;;-0.74;100.00;101256.00;1867368;76;20184;-41
2021/01/11 01:42:40;;;;;;;;;;;;;;;-0.77;100.00;101251.60;1867406;77;20211;-41
2021/01/11 01:45:09;;;;;;;;;;;;;;;-0.77;100.00;101257.16;1867167;77;20133;-41
2021/01/11 01:47:37;;;;;;;;;;;;;;;-0.79;100.00;101259.70;1867409;77;20180;-41
2021/01/11 01:50:06;;;;;;;;;;;;;;;-0.82;100.00;101258.28;1867340;76;20148;-42
2021/01/11 01:52:36;;;;;;;;;;;;;;;-0.84;100.00;101249.61;1867290;76;20176;-41
2021/01/11 01:55:06;;;;;;;;;;;;;;;-0.87;100.00;101245.66;1867345;76;20191;-41
2021/01/11 01:57:33;;;;;;;;;;;;;;;-0.91;100.00;101241.19;1867165;76;20252;-41
2021/01/11 02:00:04;;;;;;;;;;;;;;;-0.93;100.00;101239.87;1846392;77;20433;-41
2021/01/11 02:02:33;;;;;;;;;;;;;;;-0.95;100.00;101258.63;1867693;76;20406;-41
2021/01/11 02:05:04;;;;;;;;;;;;;;;-0.99;100.00;101269.64;1867518;77;20378;-41
2021/01/11 02:07:44;;;;;;;;;;;;;;;-1.03;100.00;101271.60;1867218;76;20180;-41
2021/01/11 02:10:22;;;;;;;;;;;;;;;-1.06;100.00;101275.36;1867342;77;20144;-41
2021/01/11 02:13:10;;;;;;;;;;;;;;;-1.08;100.00;101283.02;1867556;77;20394;-41
2021/01/11 02:15:58;;;;;;;;;;;;;;;-1.10;100.00;101294.92;1867151;76;20120;-40
2021/01/11 02:19:01;;;;;;;;;;;;;;;-1.12;100.00;101298.27;1867427;76;20136;-41
2021/01/11 02:21:54;;;;;;;;;;;;;;;-1.13;100.00;101301.66;1867319;77;20176;-41
2021/01/11 02:27:09;;;;;;;;;;;;;;;-1.16;100.00;101287.38;1908222;74;20181;-42
2021/01/11 02:29:57;;;;;;;;;;;;;;;-1.23;100.00;101293.56;1882276;75;20394;-41
2021/01/11 02:32:25;;;;;;;;;;;;;;;-1.25;100.00;101286.62;1903013;75;20136;-41
2021/01/11 02:34:53;;;;;;;;;;;;;;;-1.29;100.00;101289.46;1902932;75;20128;-40
2021/01/11 02:37:22;;;;;;;;;;;;;;;-1.32;100.00;101298.77;1902984;75;20167;-40
2021/01/11 02:39:49;;;;;;;;;;;;;;;-1.35;100.00;101296.93;1903408;75;20290;-41
2021/01/11 02:42:17;;;;;;;;;;;;;;;-1.40;100.00;101297.16;1903249;75;20386;-42
2021/01/11 02:44:47;;;;;;;;;;;;;;;-1.41;100.00;101297.97;1903088;75;20223;-40
2021/01/11 02:47:17;;;;;;;;;;;;;;;-1.42;100.00;101283.34;1903221;75;20378;-40
2021/01/11 02:49:47;;;;;;;;;;;;;;;-1.40;100.00;101285.59;1902917;75;20386;-41
2021/01/11 02:52:19;;;;;;;;;;;;;;;-1.38;100.00;101281.36;1903050;75;20414;-41
2021/01/11 02:54:52;;;;;;;;;;;;;;;-1.37;100.00;101293.81;1902742;75;20131;-40
2021/01/11 02:57:48;;;;;;;;;;;;;;;-1.34;100.00;101302.95;1903059;75;20143;-41
2021/01/11 03:00:17;;;;;;;;;;;;;;;-1.36;100.00;101301.59;1903136;75;20128;-40
2021/01/11 03:02:45;;;;;;;;;;;;;;;-1.37;100.00;101306.27;1903479;75;20152;-41
2021/01/11 03:05:13;;;;;;;;;;;;;;;-1.36;100.00;101310.59;1903020;75;20132;-40
2021/01/11 03:07:45;;;;;;;;;;;;;;;-1.36;100.00;101322.17;1903341;75;20518;-41
2021/01/11 03:10:13;;;;;;;;;;;;;;;-1.34;100.00;101323.53;1887151;75;20124;-41
2021/01/11 03:12:42;;;;;;;;;;;;;;;-1.34;100.00;101337.27;1903406;75;20140;-40
2021/01/11 03:15:11;;;;;;;;;;;;;;;-1.31;99.78;101339.06;1903109;75;20175;-41
2021/01/11 03:17:39;;;;;;;;;;;;;;;-1.29;99.47;101340.02;1902925;75;20176;-41
2021/01/11 03:20:08;;;;;;;;;;;;;;;-1.27;99.23;101343.55;1902959;75;20128;-41
2021/01/11 03:22:36;;;;;;;;;;;;;;;-1.25;98.88;101341.48;1903320;75;20121;-41
2021/01/11 03:25:10;;;;;;;;;;;;;;;-1.24;98.36;101349.67;1903284;75;20405;-41
2021/01/11 03:27:37;;;;;;;;;;;;;;;-1.24;97.80;101349.67;1903319;75;20144;-41
2021/01/11 03:30:08;;;;;;;;;;;;;;;-1.23;97.14;101361.73;1903229;75;20136;-41
2021/01/11 03:32:35;;;;;;;;;;;;;;;-1.23;96.56;101360.84;1903100;75;20140;-41
2021/01/11 03:35:05;;;;;;;;;;;;;;;-1.22;96.15;101357.06;1903158;75;20120;-41
2021/01/11 03:37:32;;;;;;;;;;;;;;;-1.21;95.81;101361.80;1902444;75;20159;-41
2021/01/11 03:40:01;;;;;;;;;;;;;;;-1.21;95.53;101363.09;1902779;75;20155;-41
2021/01/11 03:42:29;;;;;;;;;;;;;;;-1.21;95.33;101356.25;1902630;75;20167;-41
2021/01/11 03:44:57;;;;;;;;;;;;;;;-1.19;95.25;101353.75;1902216;75;20194;-41
2021/01/11 03:47:24;;;;;;;;;;;;;;;-1.19;95.21;101359.30;1902571;75;20258;-40
2021/01/11 03:49:53;;;;;;;;;;;;;;;-1.19;95.17;101355.03;1902510;75;20133;-40
2021/01/11 03:52:21;;;;;;;;;;;;;;;-1.21;95.17;101353.67;1902539;75;20394;-41
2021/01/11 03:54:49;;;;;;;;;;;;;;;-1.19;95.19;101361.87;1902287;75;20282;-43
2021/01/11 03:57:16;;;;;;;;;;;;;;;-1.21;95.18;101356.66;1902717;75;20168;-40
2021/01/11 03:59:44;;;;;;;;;;;;;;;-1.21;95.20;101362.67;1902258;75;20159;-39
2021/01/11 04:02:12;;;;;;;;;;;;;;;-1.24;95.24;101363.82;1902623;75;20231;-41
2021/01/11 04:04:40;;;;;;;;;;;;;;;-1.27;95.28;101365.00;1902409;75;20124;-43
2021/01/11 04:07:08;;;;;;;;;;;;;;;-1.27;95.35;101365.00;1890594;75;20266;-41
2021/01/11 04:09:35;;;;;;;;;;;;;;;-1.29;95.40;101366.63;1867264;76;20222;-40
2021/01/11 04:12:05;;;;;;;;;;;;;;;-1.33;95.40;101374.16;1867310;75;20170;-41
2021/01/11 04:14:33;;;;;;;;;;;;;;;-1.35;95.41;101374.08;1867387;77;20162;-42
2021/01/11 04:17:01;;;;;;;;;;;;;;;-1.37;95.48;101369.27;1867190;75;20138;-40
2021/01/11 04:19:29;;;;;;;;;;;;;;;-1.35;95.56;101370.22;1867226;77;20189;-41
2021/01/11 04:21:57;;;;;;;;;;;;;;;-1.35;95.61;101362.91;1867340;75;20158;-42
2021/01/11 04:24:25;;;;;;;;;;;;;;;-1.37;95.63;101350.39;1867341;75;20122;-41
2021/01/11 04:26:52;;;;;;;;;;;;;;;-1.37;95.64;101348.70;1867399;77;20233;-41
2021/01/11 04:29:20;;;;;;;;;;;;;;;-1.38;95.54;101349.95;1894782;75;20230;-42
2021/01/11 04:31:49;;;;;;;;;;;;;;;-1.37;95.26;101357.70;1902286;75;20274;-42
2021/01/11 04:34:18;;;;;;;;;;;;;;;-1.33;95.09;101366.03;1902053;75;20317;-42
2021/01/11 04:36:46;;;;;;;;;;;;;;;-1.32;94.96;101369.48;1902371;75;20240;-41
2021/01/11 04:39:14;;;;;;;;;;;;;;;-1.31;94.90;101372.09;1902657;75;20267;-42
2021/01/11 04:41:42;;;;;;;;;;;;;;;-1.30;94.86;101372.58;1902332;75;20223;-42
2021/01/11 04:44:10;;;;;;;;;;;;;;;-1.30;94.84;101383.27;1900189;75;20278;-42
2021/01/11 04:46:38;;;;;;;;;;;;;;;-1.29;94.76;101386.31;1874054;75;20182;-42
2021/01/11 04:49:06;;;;;;;;;;;;;;;-1.29;94.69;101386.31;1885751;75;20390;-39
2021/01/11 04:51:33;;;;;;;;;;;;;;;-1.29;94.63;101384.62;1824343;75;20229;-41
2021/01/11 04:54:01;;;;;;;;;;;;;;;-1.28;94.59;101376.50;1846765;75;20231;-40
2021/01/11 04:56:29;;;;;;;;;;;;;;;-1.27;94.55;101380.84;1834387;77;20283;-41
2021/01/11 04:59:02;;;;;;;;;;;;;;;-1.27;94.38;101385.58;1869303;75;20221;-41
2021/01/11 05:01:30;;;;;;;;;;;;;;;-1.25;94.16;101394.22;1867603;76;20396;-42
2021/01/11 05:04:01;;;;;;;;;;;;;;;-1.23;93.90;101386.56;1867105;77;20122;-42
2021/01/11 05:06:31;;;;;;;;;;;;;;;-1.22;93.62;101387.92;1868999;75;20130;-42
2021/01/11 05:09:04;;;;;;;;;;;;;;;-1.19;93.36;101392.73;1872892;75;20192;-42
2021/01/11 05:11:32;;;;;;;;;;;;;;;-1.18;93.12;101393.22;1866861;77;20182;-42
2021/01/11 05:14:00;;;;;;;;;;;;;;;-1.18;92.92;101392.78;1867207;77;20440;-40
2021/01/11 05:16:28;;;;;;;;;;;;;;;-1.18;92.80;101392.78;1866701;77;20150;-41
2021/01/11 05:19:01;;;;;;;;;;;;;;;-1.19;92.61;101383.33;1867222;75;20273;-41
2021/01/11 05:21:38;;;;;;;;;;;;;;;-1.17;92.48;101389.80;1844113;77;20169;-41
2021/01/11 05:24:12;;;;;;;;;;;;;;;-1.18;92.35;101386.34;1866812;77;20277;-42
2021/01/11 05:26:40;;;;;;;;;;;;;;;-1.17;92.06;101397.11;1863508;75;20240;-42
2021/01/11 05:29:17;;;;;;;;;;;;;;;-1.16;91.71;101403.14;1867464;75;20221;-42
2021/01/11 05:32:00;;;;;;;;;;;;;;;-1.16;91.43;101410.45;1837044;77;20416;-45
2021/01/11 05:34:49;;;;;;;;;;;;;;;-1.16;91.14;101405.30;1877528;75;20146;-40
2021/01/11 05:37:37;;;;;;;;;;;;;;;-1.15;90.65;101413.91;1885269;75;20397;-41
2021/01/11 05:40:09;;;;;;;;;;;;;;;-1.13;90.39;101412.28;1876088;75;20477;-41
2021/01/11 05:42:42;;;;;;;;;;;;;;;-1.11;90.14;101411.52;1872579;75;20185;-42
2021/01/11 05:45:16;;;;;;;;;;;;;;;-1.10;90.07;101409.42;1874762;75;20280;-43
2021/01/11 05:48:03;;;;;;;;;;;;;;;-1.09;90.00;101415.45;1829229;75;20494;-42
2021/01/11 05:50:35;;;;;;;;;;;;;;;-1.09;89.78;101418.02;1871977;75;20184;-43
2021/01/11 05:53:24;;;;;;;;;;;;;;;-1.09;89.66;101420.19;1843743;75;20186;-42
2021/01/11 05:55:55;;;;;;;;;;;;;;;-1.08;89.57;101421.95;1871885;75;20181;-42
2021/01/11 05:58:25;;;;;;;;;;;;;;;-1.07;89.57;101427.57;1874964;75;20167;-44
2021/01/11 06:00:55;;;;;;;;;;;;;;;-1.05;89.58;101431.50;1878619;75;20201;-42
2021/01/11 06:03:23;;;;;;;;;;;;;;;-1.03;89.56;101424.70;1870776;75;20137;-41
2021/01/11 06:05:50;;;;;;;;;;;;;;;-1.03;89.64;101424.30;1873657;75;20174;-42
2021/01/11 06:08:19;;;;;;;;;;;;;;;-1.00;89.65;101434.73;1873381;75;20150;-43
2021/01/11 06:10:46;;;;;;;;;;;;;;;-0.98;89.71;101432.20;1882524;75;20134;-43
2021/01/11 06:13:16;;;;;;;;;;;;;;;-0.98;89.78;101425.36;1855115;75;20417;-43
2021/01/11 06:15:45;;;;;;;;;;;;;;;-0.96;89.85;101416.42;1829187;75;20148;-43
2021/01/11 06:18:18;;;;;;;;;;;;;;;-0.94;89.90;101422.11;1808686;77;20134;-42
2021/01/11 06:20:48;;;;;;;;;;;;;;;-0.92;89.95;101428.18;1838528;75;20148;-52
2021/01/11 06:26:52;;;;;;;;;;;;;;;-0.87;89.73;101430.56;1898760;74;20233;-42
2021/01/11 06:29:32;;;;;;;;;;;;;;;-0.92;89.69;101429.47;1863954;75;20181;-43
2021/01/11 06:32:25;;;;;;;;;;;;;;;-0.93;89.21;101435.86;1866952;75;20134;-43
2021/01/11 06:34:50;;;;;;;;;;;;;;;-0.93;88.81;101441.02;1808527;78;20288;-42
2021/01/11 06:37:22;;;;;;;;;;;;;;;-0.92;88.42;101437.63;1825555;77;20191;-42
2021/01/11 06:39:55;;;;;;;;;;;;;;;-0.93;87.58;101442.30;1832876;77;20297;-43
2021/01/11 06:42:25;;;;;;;;;;;;;;;-0.93;87.02;101447.45;1837214;77;20219;-44
2021/01/11 06:44:53;;;;;;;;;;;;;;;-0.92;86.56;101447.48;1830898;77;20428;-43
2021/01/11 06:47:28;;;;;;;;;;;;;;;-0.90;86.41;101446.27;1807686;78;20163;-43
2021/01/11 06:50:03;;;;;;;;;;;;;;;-0.86;86.28;101447.77;1799907;78;20280;-45
2021/01/11 06:52:33;;;;;;;;;;;;;;;-0.82;86.00;101447.06;1814972;77;20202;-42
2021/01/11 06:55:10;;;;;;;;;;;;;;;-0.79;85.70;101449.30;1811235;78;20198;-44
2021/01/11 06:57:38;;;;;;;;;;;;;;;-0.79;85.41;101450.19;1807969;78;20192;-46
2021/01/11 07:00:08;;;;;;;;;;;;;;;-0.78;85.27;101442.91;1806991;78;20199;-45
2021/01/11 07:02:41;;;;;;;;;;;;;;;-0.76;85.02;101451.58;1841616;77;20209;-43
2021/01/11 07:05:33;;;;;;;;;;;;;;;-0.72;84.97;101453.89;1829281;78;20143;-49
2021/01/11 07:08:06;;;;;;;;;;;;;;;-0.69;84.76;101447.56;1823352;77;20165;-43
2021/01/11 07:10:38;;;;;;;;;;;;;;;-0.68;84.42;101446.34;1829647;77;20221;-50
2021/01/11 07:13:22;;;;;;;;;;;;;;;-0.66;84.26;101443.84;1831155;77;20124;-44
2021/01/11 07:15:56;;;;;;;;;;;;;;;-0.63;84.00;101449.09;1835174;77;20275;-43
2021/01/11 07:18:42;;;;;;;;;;;;;;;-0.63;83.60;101438.80;1851279;77;20522;-45
2021/01/11 07:21:20;;;;;;;;;;;;;;;-0.61;83.36;101432.02;1844695;77;20276;-44
2021/01/11 07:23:48;;;;;;;;;;;;;;;-0.57;83.10;101428.33;1815206;78;20818;-45
2021/01/11 07:26:18;;;;;;;;;;;;;;;-0.50;82.83;101428.16;1811134;78;20299;-47
2021/01/11 07:28:55;;;;;;;;;;;;;;;-0.44;82.70;101427.99;1835410;77;20191;-46
2021/01/11 07:31:30;;;;;;;;;;;;;;;-0.39;82.32;101417.86;1816513;78;20125;-45
2021/01/11 07:34:06;;;;;;;;;;;;;;;-0.38;81.73;101423.48;1806273;78;20252;-46
2021/01/11 07:36:45;;;;;;;;;;;;;;;-0.38;81.25;101435.08;1840184;77;20192;-48
2021/01/11 07:39:26;;;;;;;;;;;;;;;-0.33;81.01;101440.44;1821188;77;20250;-46
2021/01/11 07:42:03;;;;;;;;;;;;;;;-0.30;80.71;101440.53;1824443;77;20278;-45
2021/01/11 07:44:33;;;;;;;;;;;;;;;-0.34;80.29;101432.23;1819557;77;20200;-55
2021/01/11 07:47:10;;;;;;;;;;;;;;;-0.35;80.23;101429.17;1820962;78;20193;-43
2021/01/11 07:49:41;;;;;;;;;;;;;;;-0.42;79.87;101436.67;1817936;77;20148;-45
2021/01/11 07:52:17;;;;;;;;;;;;;;;-0.43;79.77;101443.04;1836626;77;20144;-44
2021/01/11 07:54:46;;;;;;;;;;;;;;;-0.44;79.70;101440.87;1830880;77;20194;-44
2021/01/11 07:57:14;;;;;;;;;;;;;;;-0.42;79.74;101443.52;1811544;79;20557;-45
2021/01/11 07:59:43;;;;;;;;;;;;;;;-0.41;79.17;101445.28;1794134;80;20462;-45
2021/01/11 08:02:14;;;;;;;;;;;;;;;-0.44;78.96;101443.45;1818311;78;20201;-50
2021/01/11 08:04:43;;;;;;;;;;;;;;;-0.48;78.78;101442.87;1815465;78;20195;-45
2021/01/11 08:07:11;;;;;;;;;;;;;;;-0.43;78.81;101443.04;1803358;78;20319;-47
2021/01/11 08:09:42;;;;;;;;;;;;;;;-0.37;78.73;101447.14;1803454;78;20123;-46
2021/01/11 08:12:16;;;;;;;;;;;;;;;-0.36;78.62;101448.91;1812503;78;20325;-48
2021/01/11 08:14:44;;;;;;;;;;;;;;;-0.33;78.63;101452.02;1804306;78;20166;-48
2021/01/11 08:17:18;;;;;;;;;;;;;;;-0.28;78.72;101447.52;1809044;78;20163;-48
2021/01/11 08:19:55;;;;;;;;;;;;;;;-0.22;78.65;101441.31;1810386;78;20391;-47
2021/01/11 08:22:28;;;;;;;;;;;;;;;-0.21;78.34;101445.64;1810491;78;20172;-52
2021/01/11 08:24:56;;;;;;;;;;;;;;;-0.19;78.26;101443.10;1814716;78;20536;-45
2021/01/11 08:27:36;;;;;;;;;;;;;;;-0.14;78.22;101444.19;1818980;78;20121;-48
2021/01/11 08:30:15;;;;;;;;;;;;;;;-0.10;78.06;101448.22;1802665;78;20177;-46
2021/01/11 08:32:43;;;;;;;;;;;;;;;-0.10;77.65;101435.73;1803235;80;20202;-45
2021/01/11 08:35:15;;;;;;;;;;;;;;;-0.05;77.59;101425.19;1808436;78;20153;-49
2021/01/11 08:37:43;;;;;;;;;;;;;;;0.02;77.24;101427.58;1814242;78;20176;-46
2021/01/11 08:40:19;;;;;;;;;;;;;;;-0.03;76.92;101427.42;1803465;78;20340;-47
2021/01/11 08:42:47;;;;;;;;;;;;;;;-0.04;76.85;101428.23;1813686;78;20195;-47
2021/01/11 08:45:27;;;;;;;;;;;;;;;-0.08;76.60;101428.55;1805769;78;20205;-45
2021/01/11 08:48:11;;;;;;;;;;;;;;;-0.16;76.40;101427.37;1819279;78;20441;-48
2021/01/11 08:50:55;;;;;;;;;;;;;;;-0.20;76.37;101438.39;1815159;78;20280;-47
2021/01/11 08:53:32;;;;;;;;;;;;;;;-0.23;76.56;101445.11;1814461;78;20274;-47
2021/01/11 08:56:07;;;;;;;;;;;;;;;-0.27;76.57;101446.70;1803980;78;20189;-46
2021/01/11 08:58:50;;;;;;;;;;;;;;;-0.28;76.53;101435.92;1813880;78;20217;-47
2021/01/11 09:01:26;;;;;;;;;;;;;;;-0.30;76.72;101433.69;1814696;78;20222;-47
2021/01/11 09:03:58;;;;;;;;;;;;;;;-0.30;76.81;101432.80;1809188;78;20507;-46
2021/01/11 09:06:43;;;;;;;;;;;;;;;-0.29;76.89;101437.14;1810850;78;20348;-49
2021/01/11 09:09:14;;;;;;;;;;;;;;;-0.26;76.94;101442.43;1813360;78;20186;-48
2021/01/11 09:11:44;;;;;;;;;;;;;;;-0.29;76.64;101439.72;1810874;78;20551;-46
2021/01/11 09:14:13;;;;;;;;;;;;;;;-0.32;76.45;101444.73;1811669;78;20145;-46
2021/01/11 09:16:47;;;;;;;;;;;;;;;-0.33;76.58;101438.73;1834458;77;20231;-47
2021/01/11 09:19:18;;;;;;;;;;;;;;;-0.29;76.64;101434.56;1829490;77;20210;-47
2021/01/11 09:22:17;;;;;;;;;;;;;;;-0.31;76.48;101442.23;1835844;77;20204;-47
2021/01/11 09:24:45;;;;;;;;;;;;;;;-0.30;76.64;101437.95;1809313;77;20174;-53
2021/01/11 09:27:13;;;;;;;;;;;;;;;-0.31;76.69;101429.75;1838127;77;20277;-44
2021/01/11 09:29:42;;;;;;;;;;;;;;;-0.30;76.88;101424.67;1798160;78;20175;-48
2021/01/11 09:32:11;;;;;;;;;;;;;;;-0.30;76.70;101423.78;1801404;78;20289;-47
2021/01/11 09:34:40;;;;;;;;;;;;;;;-0.36;76.57;101421.86;1788035;78;20452;-47
2021/01/11 09:37:16;;;;;;;;;;;;;;;-0.37;76.81;101415.34;1831677;77;20193;-47
2021/01/11 09:39:49;;;;;;;;;;;;;;;-0.31;77.08;101418.16;1811391;77;20168;-48
2021/01/11 09:42:22;;;;;;;;;;;;;;;-0.28;77.58;101416.59;1751928;77;20224;-47
2021/01/11 09:44:51;;;;;;;;;;;;;;;-0.29;77.86;101412.67;1764995;78;20459;-47
2021/01/11 09:47:22;;;;;;;;;;;;;;;-0.28;78.21;101412.73;1797754;77;20419;-47
2021/01/11 09:49:54;;;;;;;;;;;;;;;-0.30;77.79;101407.04;1758434;77;20384;-47
2021/01/11 09:52:23;;;;;;;;;;;;;;;-0.32;77.71;101408.27;1830893;77;20197;-46
2021/01/11 09:54:52;;;;;;;;;;;;;;;-0.34;77.64;101410.33;1842090;77;20186;-47
2021/01/11 09:57:21;;;;;;;;;;;;;;;-0.34;77.59;101415.48;1791335;78;20157;-46
2021/01/11 09:59:48;;;;;;;;;;;;;;;-0.28;77.32;101410.56;1792336;78;20201;-48
2021/01/11 10:02:16;;;;;;;;;;;;;;;-0.19;77.28;101412.19;1808053;77;20311;-47
2021/01/11 10:04:48;;;;;;;;;;;;;;;-0.13;77.12;101407.30;1809543;77;20295;-49
2021/01/11 10:07:15;;;;;;;;;;;;;;;-0.20;76.87;101411.75;1784658;78;20179;-49
2021/01/11 10:09:43;;;;;;;;;;;;;;;-0.24;76.74;101409.84;1835560;77;20184;-47
2021/01/11 10:12:12;;;;;;;;;;;;;;;-0.26;76.80;101398.63;1831891;77;20210;-46
2021/01/11 10:14:44;;;;;;;;;;;;;;;-0.25;76.92;101395.20;1710714;78;20224;-46
2021/01/11 10:17:14;;;;;;;;;;;;;;;-0.26;76.96;101402.05;1785081;77;20136;-48
2021/01/11 10:19:50;;;;;;;;;;;;;;;-0.29;76.77;101399.78;1788738;78;20207;-47
2021/01/11 10:22:40;;;;;;;;;;;;;;;-0.30;77.17;101398.02;1742042;78;20347;-48
2021/01/11 10:26:51;;;;;;;;;;;;;;;-0.18;77.68;101399.36;1899277;74;20244;-47
2021/01/11 10:29:21;;;;;;;;;;;;;;;-0.13;77.79;101403.42;1860517;75;20293;-49
2021/01/11 10:31:49;;;;;;;;;;;;;;;-0.14;77.87;101399.97;1873127;75;20509;-46
2021/01/11 10:34:18;;;;;;;;;;;;;;;-0.14;77.94;101400.38;1871921;75;20162;-45
2021/01/11 10:36:48;;;;;;;;;;;;;;;-0.11;77.97;101394.03;1874230;75;20457;-45
2021/01/11 10:39:23;;;;;;;;;;;;;;;-0.05;77.86;101387.81;1867451;75;20122;-47
2021/01/11 10:41:54;;;;;;;;;;;;;;;-0.04;77.22;101384.42;1872419;75;20221;-47
2021/01/11 10:44:25;;;;;;;;;;;;;;;-0.04;76.67;101381.84;1871819;75;20193;-49
2021/01/11 10:46:55;;;;;;;;;;;;;;;-0.05;76.18;101368.08;1878336;75;20292;-46
2021/01/11 10:49:23;;;;;;;;;;;;;;;-0.01;75.94;101366.51;1870958;75;20392;-47
2021/01/11 10:51:51;;;;;;;;;;;;;;;0.06;75.86;101370.19;1869774;75;20213;-46
2021/01/11 10:54:19;;;;;;;;;;;;;;;0.10;75.77;101374.62;1869389;75;20185;-48
2021/01/11 10:56:49;;;;;;;;;;;;;;;0.10;75.73;101369.46;1874718;75;20193;-45
2021/01/11 10:59:17;;;;;;;;;;;;;;;0.13;75.60;101357.55;1871295;75;20191;-48
2021/01/11 11:01:45;;;;;;;;;;;;;;;0.08;75.29;101351.77;1868360;75;20175;-48
2021/01/11 11:04:13;;;;;;;;;;;;;;;-0.03;75.13;101353.97;1873100;75;20593;-49
2021/01/11 11:06:41;;;;;;;;;;;;;;;-0.09;75.16;101353.74;1869673;75;21166;-46
2021/01/11 11:09:10;;;;;;;;;;;;;;;-0.08;75.26;101346.48;1873509;75;20274;-47
2021/01/11 11:11:39;;;;;;;;;;;;;;;-0.06;75.36;101340.55;1830198;77;20158;-45
2021/01/11 11:14:07;;;;;;;;;;;;;;;0.01;75.73;101331.33;1875864;75;20289;-46
2021/01/11 11:16:38;;;;;;;;;;;;;;;0.07;75.84;101337.99;1877804;75;20237;-47
2021/01/11 11:19:05;;;;;;;;;;;;;;;0.08;75.73;101347.48;1868735;75;20423;-47
2021/01/11 11:21:33;;;;;;;;;;;;;;;0.03;75.72;101341.70;1866735;75;20230;-46
2021/01/11 11:24:04;;;;;;;;;;;;;;;-0.03;75.70;101344.94;1871633;75;20204;-47
2021/01/11 11:26:31;;;;;;;;;;;;;;;-0.12;75.68;101352.33;1869224;75;20185;-45
2021/01/11 11:29:00;;;;;;;;;;;;;;;-0.13;75.80;101357.04;1869958;75;20178;-46
2021/01/11 11:31:33;;;;;;;;;;;;;;;-0.10;75.92;101367.03;1870444;75;20194;-47
2021/01/11 11:34:00;;;;;;;;;;;;;;;-0.09;75.93;101362.36;1866871;75;20244;-47
2021/01/11 11:36:27;;;;;;;;;;;;;;;-0.09;75.96;101375.23;1870426;75;20178;-48
2021/01/11 11:38:58;;;;;;;;;;;;;;;-0.06;76.19;101383.48;1870659;75;20448;-47
2021/01/11 11:41:29;;;;;;;;;;;;;;;-0.01;76.33;101390.58;1837068;75;20900;-46
2021/01/11 11:43:59;;;;;;;;;;;;;;;0.02;76.28;101387.22;1844108;75;20193;-48
2021/01/11 11:46:29;;;;;;;;;;;;;;;0.00;76.19;101391.02;1869975;75;20197;-46
2021/01/11 11:48:58;;;;;;;;;;;;;;;-0.01;76.22;101394.86;1829242;77;20198;-49
2021/01/11 11:51:30;;;;;;;;;;;;;;;-0.04;76.28;101396.90;1798180;78;20207;-45
2021/01/11 11:53:57;;;;;;;;;;;;;;;-0.05;76.25;101396.42;1830946;77;20559;-48
2021/01/11 11:56:25;;;;;;;;;;;;;;;-0.10;76.17;101400.54;1821554;77;20181;-47
2021/01/11 11:58:53;;;;;;;;;;;;;;;-0.13;76.14;101401.70;1836405;77;20307;-47
2021/01/11 12:01:21;;;;;;;;;;;;;;;-0.16;76.11;101402.89;1793722;79;20202;-48
2021/01/11 12:03:49;;;;;;;;;;;;;;;-0.17;76.29;101414.42;1811715;78;20428;-46
2021/01/11 12:06:17;;;;;;;;;;;;;;;-0.22;76.36;101418.52;1809588;78;20214;-45
2021/01/11 12:08:45;;;;;;;;;;;;;;;-0.23;76.60;101414.19;1805676;78;20317;-45
2021/01/11 12:11:16;;;;;;;;;;;;;;;-0.22;76.85;101413.37;1789629;78;20179;-49
2021/01/11 12:13:47;;;;;;;;;;;;;;;-0.24;76.79;101418.46;1787808;77;20204;-45
2021/01/11 12:16:17;;;;;;;;;;;;;;;-0.27;76.81;101411.92;1809245;77;20188;-47
2021/01/11 12:18:45;;;;;;;;;;;;;;;-0.26;76.97;101415.38;1830486;77;20170;-46
2021/01/11 12:21:18;;;;;;;;;;;;;;;-0.25;77.20;101410.66;1820883;77;20302;-46
2021/01/11 12:23:55;;;;;;;;;;;;;;;-0.24;77.26;101407.27;1784218;77;20499;-47
2021/01/11 12:26:24;;;;;;;;;;;;;;;-0.24;77.12;101404.70;1789643;78;20233;-45
2021/01/11 12:28:54;;;;;;;;;;;;;;;-0.24;76.95;101406.87;1765934;78;20178;-46
2021/01/11 12:31:28;;;;;;;;;;;;;;;-0.25;76.95;101402.53;1811367;78;20191;-45
2021/01/11 12:33:56;;;;;;;;;;;;;;;-0.25;76.74;101405.52;1810249;77;20236;-46
2021/01/11 12:36:26;;;;;;;;;;;;;;;-0.28;76.56;101406.30;1786763;78;20179;-46
2021/01/11 12:38:57;;;;;;;;;;;;;;;-0.26;76.47;101407.65;1821259;78;20182;-44
2021/01/11 12:41:26;;;;;;;;;;;;;;;-0.25;76.35;101397.78;1830937;77;20258;-47
2021/01/11 12:43:55;;;;;;;;;;;;;;;-0.25;76.00;101405.11;1782647;77;20202;-46
2021/01/11 12:46:25;;;;;;;;;;;;;;;-0.23;75.86;101414.19;1818396;77;20157;-47
2021/01/11 12:49:04;;;;;;;;;;;;;;;-0.21;75.74;101415.14;1786146;78;20228;-46
2021/01/11 12:51:57;;;;;;;;;;;;;;;-0.19;75.55;101417.34;1800334;78;20228;-46
2021/01/11 12:54:29;;;;;;;;;;;;;;;-0.17;75.53;101429.87;1762333;78;20225;-46
2021/01/11 12:57:02;;;;;;;;;;;;;;;-0.15;75.54;101438.56;1834829;77;20209;-47
2021/01/11 12:59:32;;;;;;;;;;;;;;;-0.16;75.54;101438.97;1809937;77;20192;-48
2021/01/11 13:02:02;;;;;;;;;;;;;;;-0.16;75.47;101449.27;1834580;77;20133;-46
2021/01/11 13:04:30;;;;;;;;;;;;;;;-0.14;75.54;101454.49;1816351;77;20127;-47